Time;durP1;ratioP1;P1;durP2;ratioP2;P2;SDS_P1;SDS_P2;PMS_P1;PMS_P2;Temp;Humidity;BMP_temperature;BMP_pressure;BME280_temperature;BME280_humidity;BME280_pressure;Samples;Min_cycle;Max_cycle;Signal;HPM_P1;HPM_P2
2022/05/23 00:00:48;;;;;;;;;6.00;6.00;;;;;21.32;45.08;100016.69;5082928;27;45457;-49
2022/05/23 00:03:13;;;;;;;;;6.00;5.00;;;;;21.30;44.80;100028.44;5083122;27;45245;-51
2022/05/23 00:05:40;;;;;;;;;6.75;6.00;;;;;21.28;44.62;100015.16;5083261;27;45245;-51
2022/05/23 00:08:05;;;;;;;;;5.00;5.00;;;;;21.27;44.66;100003.63;5083288;27;45380;-47
2022/05/23 00:10:31;;;;;;;;;5.00;5.00;;;;;21.26;45.05;99987.72;5083222;27;45516;-50
2022/05/23 00:12:57;;;;;;;;;5.00;5.00;;;;;21.23;45.07;99988.78;5083042;27;46255;-49
2022/05/23 00:15:22;;;;;;;;;5.25;5.25;;;;;21.21;45.15;99990.69;5082614;28;45317;-49
2022/05/23 00:17:48;;;;;;;;;5.75;4.25;;;;;21.20;44.91;99990.81;5082797;28;45897;-48
2022/05/23 00:20:16;;;;;;;;;6.00;5.00;;;;;21.18;44.97;100000.75;5083084;27;45546;-49
2022/05/23 00:22:41;;;;;;;;;6.25;6.25;;;;;21.15;45.43;99993.81;5081532;28;46239;-50
2022/05/23 00:25:09;;;;;;;;;6.00;5.50;;;;;21.14;45.53;99984.06;5082718;28;45228;-50
2022/05/23 00:27:37;;;;;;;;;8.00;3.75;;;;;21.13;45.33;99976.19;5064466;27;45333;-49
2022/05/23 00:30:05;;;;;;;;;6.50;6.25;;;;;21.10;45.01;99967.41;5062364;28;45331;-50
2022/05/23 00:35:20;;;;;;;;;5.25;5.25;;;;;21.05;45.40;99953.53;5082562;28;45177;-49
2022/05/23 00:37:48;;;;;;;;;5.25;5.25;;;;;21.05;45.33;99969.56;5082818;28;45328;-47
2022/05/23 00:40:35;;;;;;;;;6.00;5.75;;;;;21.04;45.53;99964.31;5082711;27;45313;-49
2022/05/23 00:43:13;;;;;;;;;4.00;4.00;;;;;21.03;45.57;99951.94;5082611;27;47933;-48
2022/05/23 00:45:40;;;;;;;;;6.25;6.00;;;;;21.01;44.96;99953.88;5082041;27;45223;-47
2022/05/23 00:48:07;;;;;;;;;4.00;4.00;;;;;21.01;45.70;99949.38;5082239;27;45540;-50
2022/05/23 00:50:34;;;;;;;;;5.00;5.00;;;;;21.01;45.30;99954.72;5082386;27;45327;-51
2022/05/23 00:53:02;;;;;;;;;4.25;4.00;;;;;21.00;45.10;99952.16;5082350;27;45322;-46
2022/05/23 00:55:33;;;;;;;;;3.75;3.25;;;;;21.00;45.09;99947.66;5082294;27;45274;-52
2022/05/23 00:58:06;;;;;;;;;5.25;5.00;;;;;20.96;45.69;99951.50;5082318;27;45278;-52
2022/05/23 01:00:32;;;;;;;;;5.00;5.00;;;;;20.96;45.65;99943.50;5082091;27;45418;-49
2022/05/23 01:03:03;;;;;;;;;5.50;5.50;;;;;20.97;45.63;99939.88;5081960;27;46574;-47
2022/05/23 01:05:29;;;;;;;;;6.00;6.00;;;;;20.95;45.75;99928.44;5082163;27;45209;-51
2022/05/23 01:07:54;;;;;;;;;4.00;4.00;;;;;20.94;45.60;99913.38;5082280;27;45496;-50
2022/05/23 01:10:19;;;;;;;;;4.00;4.00;;;;;20.92;45.53;99905.47;5082402;27;45589;-50
2022/05/23 01:12:45;;;;;;;;;5.25;5.00;;;;;20.90;45.61;99903.88;5082062;28;46203;-49
2022/05/23 01:15:20;;;;;;;;;4.00;4.00;;;;;20.89;45.87;99896.81;5082063;27;45309;-52
2022/05/23 01:17:46;;;;;;;;;5.75;3.75;;;;;20.88;45.20;99893.31;5081859;28;45259;-51
2022/05/23 01:20:12;;;;;;;;;3.50;3.50;;;;;20.85;45.92;99864.16;5082030;27;45558;-49
2022/05/23 01:23:00;;;;;;;;;6.75;5.25;;;;;20.85;45.78;99861.47;5080643;28;48217;-47
2022/05/23 01:25:30;;;;;;;;;6.00;5.25;;;;;20.84;45.89;99849.13;5081217;27;45468;-50
2022/05/23 01:27:55;;;;;;;;;4.75;4.75;;;;;20.83;45.86;99847.41;5061779;28;45354;-48
2022/05/23 01:30:21;;;;;;;;;4.00;4.00;;;;;20.81;45.30;99835.13;5061368;28;45422;-50
2022/05/23 01:32:47;;;;;;;;;4.75;4.75;;;;;20.81;45.36;99824.44;5061594;28;45400;-49
2022/05/23 01:35:13;;;;;;;;;3.75;3.75;;;;;20.78;45.59;99833.53;5059991;28;45928;-50
2022/05/23 01:37:39;;;;;;;;;4.00;4.00;;;;;20.78;45.42;99837.03;5060423;28;45522;-51
2022/05/23 01:40:07;;;;;;;;;3.50;3.50;;;;;20.77;45.44;99838.00;5061335;28;45240;-51
2022/05/23 01:42:33;;;;;;;;;4.50;4.25;;;;;20.74;45.61;99826.69;5061341;28;46547;-51
2022/05/23 01:44:59;;;;;;;;;4.00;4.00;;;;;20.74;45.58;99827.56;5060984;28;45163;-49
2022/05/23 01:47:24;;;;;;;;;6.00;4.75;;;;;20.73;46.02;99817.84;5061437;28;45741;-47
2022/05/23 01:49:49;;;;;;;;;6.00;3.25;;;;;20.72;46.22;99807.28;5074689;28;45497;-49
2022/05/23 01:52:15;;;;;;;;;5.25;5.25;;;;;20.71;45.56;99798.41;5080674;27;45437;-50
2022/05/23 01:54:40;;;;;;;;;5.00;5.00;;;;;20.68;45.61;99787.91;5081397;27;45318;-49
2022/05/23 01:57:09;;;;;;;;;5.00;5.00;;;;;20.69;45.69;99797.63;5081609;28;45456;-49
2022/05/23 02:02:19;;;;;;;;;4.75;4.75;;;;;20.66;46.03;99807.69;5081022;28;45866;-49
2022/05/23 02:04:47;;;;;;;;;4.25;4.25;;;;;20.62;45.97;99799.03;5081001;28;45402;-47
2022/05/23 02:07:14;;;;;;;;;5.25;5.25;;;;;20.63;45.83;99788.25;5081596;27;45298;-46
2022/05/23 02:09:40;;;;;;;;;4.00;4.00;;;;;20.62;45.86;99797.19;5081151;27;45378;-49
2022/05/23 02:12:07;;;;;;;;;6.00;5.50;;;;;20.58;45.77;99782.38;5079909;28;47099;-49
2022/05/23 02:14:33;;;;;;;;;6.00;6.00;;;;;20.57;45.79;99780.66;5081004;27;45442;-50
2022/05/23 02:16:59;;;;;;;;;5.75;5.00;;;;;20.57;46.23;99787.84;5080788;27;45254;-48
2022/05/23 02:19:24;;;;;;;;;5.25;5.25;;;;;20.55;46.41;99797.75;5080917;27;45259;-49
2022/05/23 02:21:50;;;;;;;;;6.50;6.25;;;;;20.52;46.32;99796.16;5081173;27;45227;-47
2022/05/23 02:24:15;;;;;;;;;6.25;6.25;;;;;20.50;46.03;99808.75;5080901;27;45188;-47
2022/05/23 02:26:41;;;;;;;;;6.75;6.75;;;;;20.50;46.05;99810.56;5070152;28;45445;-49
2022/05/23 02:29:08;;;;;;;;;7.00;6.50;;;;;20.48;46.17;99810.69;5060712;28;45465;-50
2022/05/23 02:31:34;;;;;;;;;6.00;4.25;;;;;20.46;46.10;99816.13;5060458;28;46034;-51
2022/05/23 02:34:00;;;;;;;;;5.25;5.25;;;;;20.45;46.32;99827.75;5060424;28;45385;-49
2022/05/23 02:36:26;;;;;;;;;6.00;4.25;;;;;20.46;46.36;99840.16;5060783;28;45317;-49
2022/05/23 02:38:52;;;;;;;;;5.00;4.25;;;;;20.43;46.11;99848.34;5059037;28;45410;-47
2022/05/23 02:41:17;;;;;;;;;4.00;4.00;;;;;20.40;46.50;99837.91;5060597;28;45259;-50
2022/05/23 02:43:42;;;;;;;;;4.00;4.00;;;;;20.40;46.13;99829.91;5060348;28;45339;-49
2022/05/23 02:46:08;;;;;;;;;5.00;5.00;;;;;20.38;46.07;99815.81;5060220;28;45268;-46
2022/05/23 02:48:34;;;;;;;;;7.50;5.00;;;;;20.37;46.59;99816.75;5060196;28;45489;-46
2022/05/23 02:50:59;;;;;;;;;6.25;6.25;;;;;20.35;46.24;99809.84;5060548;28;45394;-48
2022/05/23 02:53:24;;;;;;;;;9.00;5.50;;;;;20.32;46.38;99800.22;5060222;28;45420;-49
2022/05/23 02:55:50;;;;;;;;;5.50;5.50;;;;;20.30;46.51;99797.69;5060391;28;45540;-49
2022/05/23 02:58:15;;;;;;;;;6.75;6.00;;;;;20.30;46.33;99799.47;5060325;28;45294;-50
2022/05/23 03:00:40;;;;;;;;;5.00;5.00;;;;;20.28;46.43;99804.91;5059793;28;46088;-48
2022/05/23 03:03:08;;;;;;;;;6.00;5.00;;;;;20.28;46.25;99817.41;5060004;28;45192;-46
2022/05/23 03:05:42;;;;;;;;;5.25;5.00;;;;;20.27;46.82;99807.69;5060172;28;45247;-50
2022/05/23 03:08:09;;;;;;;;;5.25;5.00;;;;;20.26;46.90;99814.00;5058635;28;45406;-46
2022/05/23 03:10:35;;;;;;;;;21.25;20.00;;;;;20.25;46.40;99831.81;5059555;28;46963;-50
2022/05/23 03:13:01;;;;;;;;;6.75;6.75;;;;;20.26;46.91;99846.00;5059866;28;45272;-49
2022/05/23 03:15:28;;;;;;;;;8.50;8.50;;;;;20.24;46.78;99851.44;5059836;28;45293;-50
2022/05/23 03:17:54;;;;;;;;;6.00;5.00;;;;;20.23;46.59;99851.56;5077339;28;45472;-48
2022/05/23 03:20:20;;;;;;;;;7.25;7.00;;;;;20.20;46.93;99854.44;5080197;27;46215;-48
2022/05/23 03:28:27;;;;;;;;;6.25;6.25;;;;;20.18;46.86;99835.88;5080146;28;45352;-51
2022/05/23 03:30:52;;;;;;;;;7.75;6.50;;;;;20.18;46.71;99829.69;5079489;27;45168;-50
2022/05/23 03:33:18;;;;;;;;;5.50;5.50;;;;;20.16;46.80;99816.44;5080212;27;45160;-48
2022/05/23 03:35:44;;;;;;;;;7.25;7.25;;;;;20.14;46.94;99792.53;5079880;27;45491;-49
2022/05/23 03:38:10;;;;;;;;;6.00;5.00;;;;;20.16;47.07;99797.78;5078840;28;45555;-49
2022/05/23 03:40:37;;;;;;;;;5.75;5.75;;;;;20.16;46.98;99787.09;5078410;28;45370;-50
2022/05/23 03:43:04;;;;;;;;;5.50;5.50;;;;;20.18;46.66;99774.53;5079854;27;45342;-51
2022/05/23 03:45:30;;;;;;;;;7.00;6.00;;;;;20.18;47.42;99773.69;5079499;27;45313;-46
2022/05/23 03:47:57;;;;;;;;;6.00;6.00;;;;;20.18;47.38;99771.00;5078530;28;45349;-51
2022/05/23 03:50:25;;;;;;;;;8.00;7.00;;;;;20.17;47.02;99761.31;5079520;27;46245;-49
2022/05/23 03:52:52;;;;;;;;;6.00;6.00;;;;;20.13;47.00;99755.31;5079816;27;45334;-49
2022/05/23 03:55:18;;;;;;;;;6.50;4.75;;;;;20.18;47.20;99761.19;5079686;27;45410;-48
2022/05/23 03:57:43;;;;;;;;;7.00;7.00;;;;;20.17;47.49;99769.31;5079874;27;45290;-51
2022/05/23 04:00:12;;;;;;;;;4.75;4.75;;;;;20.14;47.54;99778.38;5079288;27;46257;-50
2022/05/23 04:02:37;;;;;;;;;21.75;20.75;;;;;20.13;47.31;99788.16;5074774;28;45325;-51
2022/05/23 04:05:04;;;;;;;;;6.25;6.25;;;;;20.11;48.02;99786.56;5066362;28;45282;-51
2022/05/23 04:07:30;;;;;;;;;9.00;9.00;;;;;20.12;47.57;99751.81;5078346;28;45560;-48
2022/05/23 04:09:55;;;;;;;;;10.75;9.25;;;;;20.10;47.61;99747.53;5079545;27;46293;-50
2022/05/23 04:12:21;;;;;;;;;6.50;6.50;;;;;20.11;47.71;99750.09;5075058;28;45307;-49
2022/05/23 04:14:46;;;;;;;;;9.00;8.50;;;;;20.09;48.02;99756.50;5079640;28;45776;-49
2022/05/23 04:17:12;;;;;;;;;7.00;6.00;;;;;20.10;47.68;99745.72;5079254;27;46340;-49
2022/05/23 04:19:37;;;;;;;;;8.00;8.00;;;;;20.10;48.23;99731.53;5079020;28;46052;-50
2022/05/23 04:22:03;;;;;;;;;10.00;7.75;;;;;20.10;48.35;99734.19;5079552;27;45361;-49
2022/05/23 04:24:28;;;;;;;;;8.00;8.00;;;;;20.09;48.47;99725.34;5076755;27;45461;-46
2022/05/23 04:26:55;;;;;;;;;7.50;6.75;;;;;20.09;47.80;99712.00;5062419;28;45454;-47
2022/05/23 04:29:22;;;;;;;;;10.75;9.00;;;;;20.06;48.43;99706.91;5061053;28;45987;-49
2022/05/23 04:31:47;;;;;;;;;8.25;8.00;;;;;20.02;48.20;99699.22;5060926;28;45868;-47
2022/05/23 04:36:56;;;;;;;;;8.50;5.50;;;;;20.06;48.24;99688.25;5062392;28;45204;-49
2022/05/23 04:39:22;;;;;;;;;8.00;6.25;;;;;20.07;48.62;99678.41;5062333;28;46264;-45
2022/05/23 04:41:49;;;;;;;;;10.00;9.00;;;;;20.05;48.35;99667.88;5061257;28;45263;-47
2022/05/23 04:44:14;;;;;;;;;7.50;6.75;;;;;20.05;48.74;99681.19;5062612;28;45503;-50
2022/05/23 04:49:41;;;;;;;;;9.00;7.00;;;;;20.04;48.61;99659.97;5060979;27;45431;-51
2022/05/23 04:52:09;;;;;;;;;7.00;6.00;;;;;20.03;48.69;99666.28;5081073;28;45188;-49
2022/05/23 04:54:36;;;;;;;;;6.25;6.25;;;;;20.02;48.49;99659.22;5082544;27;45276;-51
2022/05/23 04:57:01;;;;;;;;;8.25;5.25;;;;;20.03;48.83;99668.94;5082322;27;45316;-48
2022/05/23 04:59:26;;;;;;;;;6.25;6.25;;;;;20.01;48.91;99674.34;5082265;28;45454;-47
2022/05/23 05:01:52;;;;;;;;;6.00;6.00;;;;;20.00;48.65;99678.00;5082192;27;45373;-45
2022/05/23 05:04:17;;;;;;;;;6.75;6.75;;;;;20.00;48.51;99669.13;5082427;28;45475;-50
2022/05/23 05:06:43;;;;;;;;;7.25;7.25;;;;;19.96;48.65;99660.50;5082210;28;45287;-49
2022/05/23 05:09:08;;;;;;;;;6.25;6.25;;;;;19.95;48.66;99649.00;5082217;27;46837;-49
2022/05/23 05:11:39;;;;;;;;;8.50;8.00;;;;;19.94;48.68;99641.97;5080868;28;45339;-48
2022/05/23 05:14:07;;;;;;;;;8.25;8.25;;;;;19.93;48.84;99644.75;5078058;28;45312;-47
2022/05/23 05:16:33;;;;;;;;;8.00;7.50;;;;;19.93;48.82;99653.56;5074018;27;45311;-49
2022/05/23 05:18:59;;;;;;;;;10.50;7.75;;;;;19.91;48.70;99644.84;5075483;28;46270;-51
2022/05/23 05:21:24;;;;;;;;;7.25;7.00;;;;;19.91;48.89;99642.19;5082315;27;45329;-48
2022/05/23 05:23:50;;;;;;;;;7.75;6.50;;;;;19.92;49.22;99643.03;5081757;27;45219;-49
2022/05/23 05:26:15;;;;;;;;;5.25;5.25;;;;;19.90;49.11;99653.81;5061534;28;45223;-48
2022/05/23 05:28:41;;;;;;;;;6.75;6.00;;;;;19.87;49.45;99647.84;5061613;28;45249;-46
2022/05/23 05:31:22;;;;;;;;;8.25;8.25;;;;;19.88;49.50;99652.22;5061554;28;45238;-51
2022/05/23 05:33:55;;;;;;;;;10.50;7.00;;;;;19.86;49.27;99655.00;5061599;28;45397;-49
2022/05/23 05:36:27;;;;;;;;;7.25;7.25;;;;;19.88;49.34;99660.22;5061507;28;45236;-48
2022/05/23 05:39:01;;;;;;;;;7.00;7.00;;;;;19.90;49.30;99676.94;5061156;28;45440;-46
2022/05/23 05:41:32;;;;;;;;;9.25;8.00;;;;;19.87;49.34;99656.66;5061465;28;45248;-50
2022/05/23 05:44:03;;;;;;;;;8.00;8.00;;;;;19.91;49.16;99667.97;5061370;28;45429;-52
2022/05/23 05:46:33;;;;;;;;;8.25;8.00;;;;;19.89;49.64;99665.44;5060912;28;45389;-48
2022/05/23 05:49:04;;;;;;;;;8.00;7.00;;;;;19.90;49.59;99666.25;5068586;28;46118;-48
2022/05/23 05:51:31;;;;;;;;;6.00;6.00;;;;;19.90;49.49;99664.47;5081389;27;45391;-50
2022/05/23 05:53:57;;;;;;;;;7.50;7.00;;;;;19.89;49.68;99670.75;5081714;27;45449;-50
2022/05/23 05:56:23;;;;;;;;;7.75;7.00;;;;;19.90;49.58;99661.81;5081180;28;45383;-46
2022/05/23 05:58:49;;;;;;;;;6.25;6.25;;;;;19.92;49.28;99662.56;5063236;28;47279;-49
2022/05/23 06:01:14;;;;;;;;;8.25;8.25;;;;;19.94;49.20;99662.44;5079743;28;45243;-51
2022/05/23 06:03:40;;;;;;;;;11.25;8.00;;;;;19.98;49.82;99663.94;5081515;28;45346;-47
2022/05/23 06:11:34;;;;;;;;;8.00;8.00;;;;;20.06;49.51;99660.72;5081203;28;45299;-47
2022/05/23 06:14:02;;;;;;;;;8.00;7.75;;;;;20.09;49.46;99657.84;5080016;28;45297;-49
2022/05/23 06:16:30;;;;;;;;;7.00;7.00;;;;;20.11;50.08;99671.91;5079366;28;45629;-48
2022/05/23 06:18:56;;;;;;;;;10.75;8.75;;;;;20.12;50.16;99684.28;5079523;28;45487;-49
2022/05/23 06:21:23;;;;;;;;;7.25;7.25;;;;;20.11;49.97;99672.78;5081092;27;45283;-50
2022/05/23 06:23:49;;;;;;;;;8.75;7.75;;;;;20.11;49.87;99674.56;5081304;27;45298;-50
2022/05/23 06:26:15;;;;;;;;;10.25;8.50;;;;;20.09;49.71;99657.84;5073859;28;45476;-50
2022/05/23 06:28:42;;;;;;;;;9.50;8.00;;;;;20.08;50.14;99656.97;5060603;28;46340;-49
2022/05/23 06:31:08;;;;;;;;;8.50;8.00;;;;;20.07;50.23;99652.59;5060350;28;45286;-48
2022/05/23 06:33:34;;;;;;;;;9.00;9.00;;;;;20.07;49.98;99631.25;5059237;28;45180;-47
2022/05/23 06:35:59;;;;;;;;;10.75;10.75;;;;;20.07;50.19;99612.59;5060599;28;45295;-49
2022/05/23 06:38:25;;;;;;;;;9.75;9.00;;;;;20.09;50.03;99613.34;5060374;28;45228;-51
2022/05/23 06:40:51;;;;;;;;;9.25;7.75;;;;;20.09;50.30;99629.34;5060710;28;45326;-49
2022/05/23 06:43:18;;;;;;;;;9.75;9.00;;;;;20.11;50.28;99632.78;5076017;28;45420;-50
2022/05/23 06:45:45;;;;;;;;;9.50;9.50;;;;;20.12;49.85;99630.94;5059498;28;45459;-49
2022/05/23 06:48:10;;;;;;;;;11.50;9.00;;;;;20.14;50.10;99637.03;5060163;28;45359;-48
2022/05/23 06:50:36;;;;;;;;;8.00;7.25;;;;;20.16;50.31;99644.91;5060406;28;45234;-47
2022/05/23 06:53:01;;;;;;;;;9.50;8.50;;;;;20.16;50.46;99624.41;5060412;28;45469;-49
2022/05/23 06:55:27;;;;;;;;;9.75;8.75;;;;;20.16;50.02;99632.41;5058863;28;45296;-46
2022/05/23 06:57:52;;;;;;;;;10.25;8.75;;;;;20.17;50.50;99635.94;5060294;28;45406;-50
2022/05/23 07:00:18;;;;;;;;;9.50;8.25;;;;;20.14;50.53;99627.19;5060090;28;45149;-50
2022/05/23 07:02:44;;;;;;;;;8.25;8.25;;;;;20.16;50.00;99629.75;5059056;28;45258;-48
2022/05/23 07:13:21;;;;;;;;;13.00;9.00;;;;;20.17;50.71;99610.13;5080585;28;45351;-47
2022/05/23 07:15:47;;;;;;;;;11.50;8.75;;;;;20.16;50.68;99616.41;5079585;27;45218;-48
2022/05/23 07:18:13;;;;;;;;;8.50;7.75;;;;;20.13;50.90;99617.50;5080140;27;46079;-48
2022/05/23 07:20:39;;;;;;;;;8.25;8.25;;;;;20.19;50.56;99623.34;5080228;28;45165;-49
2022/05/23 07:23:05;;;;;;;;;9.00;9.00;;;;;20.18;50.96;99633.16;5080367;28;45417;-49
2022/05/23 07:25:31;;;;;;;;;12.25;11.25;;;;;20.18;51.13;99617.16;5078865;27;45326;-49
2022/05/23 07:27:56;;;;;;;;;12.50;10.75;;;;;20.19;51.34;99623.34;5059832;28;46231;-49
2022/05/23 07:30:21;;;;;;;;;13.25;11.00;;;;;20.22;51.00;99636.47;5059559;28;45334;-47
2022/05/23 07:32:47;;;;;;;;;11.00;11.00;;;;;20.21;51.03;99648.09;5059879;28;45317;-45
2022/05/23 07:35:13;;;;;;;;;9.25;9.25;;;;;20.20;51.12;99635.72;5072795;28;45474;-46
2022/05/23 07:37:38;;;;;;;;;13.00;12.25;;;;;20.21;51.55;99635.59;5061532;28;45319;-49
2022/05/23 07:40:05;;;;;;;;;14.50;11.00;;;;;20.23;51.60;99619.50;5080115;27;45300;-49
2022/05/23 07:42:31;;;;;;;;;11.00;10.50;;;;;20.23;51.68;99622.19;5080198;27;45355;-45
2022/05/23 07:44:56;;;;;;;;;17.00;14.50;;;;;20.23;52.15;99612.34;5079607;27;45465;-49
2022/05/23 07:47:22;;;;;;;;;17.75;15.25;;;;;20.23;51.87;99603.50;5079696;28;46456;-48
2022/05/23 07:49:49;;;;;;;;;15.00;11.75;;;;;20.26;51.79;99577.47;5079894;28;45289;-49
2022/05/23 07:52:14;;;;;;;;;12.50;12.00;;;;;20.32;52.12;99575.31;5080206;27;45195;-49
2022/05/23 08:02:52;;;;;;;;;17.50;14.00;;;;;20.48;51.86;99567.00;5083085;28;45244;-50
2022/05/23 08:05:18;;;;;;;;;16.50;14.25;;;;;20.49;52.09;99566.91;5082047;28;45463;-51
2022/05/23 08:07:43;;;;;;;;;20.75;17.00;;;;;20.51;52.26;99562.28;5079843;28;47060;-48
2022/05/23 08:10:10;;;;;;;;;16.50;12.50;;;;;20.62;52.42;99566.84;5083192;28;45243;-47
2022/05/23 08:12:37;;;;;;;;;16.50;15.00;;;;;20.66;52.68;99576.31;5083062;28;45434;-49
2022/05/23 08:15:04;;;;;;;;;18.25;13.00;;;;;20.73;52.47;99574.94;5082782;28;45532;-49
2022/05/23 08:17:29;;;;;;;;;15.00;14.50;;;;;20.79;52.72;99565.59;5082393;28;46863;-50
2022/05/23 08:19:55;;;;;;;;;15.50;15.50;;;;;20.88;52.87;99572.91;5083012;27;45266;-49
2022/05/23 08:22:21;;;;;;;;;19.50;18.25;;;;;20.93;52.99;99572.59;5082933;28;45469;-51
2022/05/23 08:24:46;;;;;;;;;13.25;13.25;;;;;21.00;52.67;99575.63;5082902;28;45453;-46
2022/05/23 08:27:11;;;;;;;;;13.50;12.50;;;;;21.07;52.48;99579.53;5067015;27;46091;-50
2022/05/23 08:29:37;;;;;;;;;16.25;14.00;;;;;21.11;53.01;99576.50;5062217;28;45280;-47
2022/05/23 08:32:09;;;;;;;;;16.50;16.00;;;;;21.11;52.62;99576.50;5062425;28;45225;-46
2022/05/23 08:34:35;;;;;;;;;15.00;15.00;;;;;21.15;52.91;99582.44;5061255;28;45221;-50
2022/05/23 08:37:00;;;;;;;;;13.50;12.75;;;;;21.13;53.15;99572.84;5062155;28;46345;-48
2022/05/23 08:39:26;;;;;;;;;9.00;9.00;;;;;21.11;52.66;99557.78;5061252;28;45220;-49
2022/05/23 08:41:52;;;;;;;;;12.75;12.75;;;;;21.13;53.16;99564.84;5062491;28;45233;-51
2022/05/23 08:44:37;;;;;;;;;18.00;15.50;;;;;21.15;52.81;99553.06;5062251;28;45542;-47
2022/05/23 08:47:13;;;;;;;;;14.50;12.75;;;;;21.17;53.06;99561.81;5061863;28;46354;-51
2022/05/23 08:49:47;;;;;;;;;15.25;13.25;;;;;21.17;52.81;99558.28;5062203;28;45161;-47
2022/05/23 08:52:48;;;;;;;;;14.25;12.00;;;;;21.20;53.27;99550.06;5069891;28;45266;-46
2022/05/23 08:55:28;;;;;;;;;12.25;7.25;;;;;21.22;52.96;99569.47;5080743;28;45568;-47
2022/05/23 08:58:02;;;;;;;;;5.25;5.25;;;;;21.20;52.95;99566.09;5081048;28;47460;-48
2022/05/23 09:00:38;;;;;;;;;5.50;5.25;;;;;21.19;52.75;99556.34;5082046;27;45252;-51
2022/05/23 09:03:09;;;;;;;;;4.00;4.00;;;;;21.17;53.39;99559.16;5082337;27;45234;-52
2022/05/23 09:05:38;;;;;;;;;4.75;4.75;;;;;21.16;53.30;99570.81;5082438;28;45247;-47
2022/05/23 09:08:12;;;;;;;;;6.25;5.25;;;;;21.16;53.17;99569.97;5082051;27;46285;-50
2022/05/23 09:10:45;;;;;;;;;8.50;7.00;;;;;21.06;53.14;99573.31;5080808;28;45231;-47
2022/05/23 09:13:14;;;;;;;;;7.50;6.50;;;;;21.07;53.13;99579.53;5082236;27;45245;-47
2022/05/23 09:15:40;;;;;;;;;7.75;7.75;;;;;21.06;53.49;99588.50;5081618;27;45314;-46
2022/05/23 09:18:10;;;;;;;;;11.00;11.00;;;;;21.00;53.49;99587.16;5081978;28;45309;-48
2022/05/23 09:20:44;;;;;;;;;11.00;10.25;;;;;20.90;53.90;99575.47;5082058;28;45655;-49
2022/05/23 09:23:24;;;;;;;;;14.00;13.75;;;;;20.86;53.16;99572.19;5077371;28;45375;-49
2022/05/23 09:25:51;;;;;;;;;12.25;11.00;;;;;20.81;53.51;99574.34;5061293;28;45303;-50
2022/05/23 09:28:28;;;;;;;;;11.50;11.50;;;;;20.77;54.03;99576.38;5061493;28;47276;-50
2022/05/23 09:30:59;;;;;;;;;13.25;10.50;;;;;20.74;54.07;99575.75;5060987;28;45379;-47
2022/05/23 09:33:28;;;;;;;;;13.50;13.25;;;;;20.74;54.04;99567.75;5061777;28;45311;-47
2022/05/23 09:36:08;;;;;;;;;11.50;10.25;;;;;20.75;53.65;99569.47;5061250;28;45611;-47
2022/05/23 09:38:54;;;;;;;;;16.00;14.75;;;;;20.73;53.66;99572.25;5061243;28;47116;-46
2022/05/23 09:49:48;;;;;;;;;16.75;12.75;;;;;20.70;52.96;99580.44;5081488;28;45368;-51
2022/05/23 09:52:22;;;;;;;;;16.50;13.50;;;;;20.61;53.51;99575.81;5081528;27;45321;-49
2022/05/23 09:54:58;;;;;;;;;13.00;11.50;;;;;20.63;52.72;99573.88;5081580;28;45368;-50
2022/05/23 09:57:36;;;;;;;;;16.50;15.25;;;;;20.63;52.79;99576.56;5081219;27;45295;-49
2022/05/23 10:00:25;;;;;;;;;15.25;12.75;;;;;20.56;53.27;99572.63;5080851;28;46222;-50
2022/05/23 10:03:19;;;;;;;;;15.75;15.75;;;;;20.61;52.81;99565.97;5081205;28;45334;-47
2022/05/23 10:05:50;;;;;;;;;12.00;11.50;;;;;20.59;53.16;99564.38;5077076;27;45173;-48
2022/05/23 10:08:27;;;;;;;;;18.50;15.75;;;;;20.57;53.06;99563.66;5081065;28;45634;-49
2022/05/23 10:11:02;;;;;;;;;13.75;13.75;;;;;20.59;52.63;99557.25;5079762;28;48386;-47
2022/05/23 10:13:32;;;;;;;;;17.50;16.00;;;;;20.60;52.39;99542.94;5081440;28;45199;-49
2022/05/23 10:16:15;;;;;;;;;17.00;16.75;;;;;20.62;52.82;99553.50;5080705;28;45393;-48
2022/05/23 10:18:49;;;;;;;;;15.25;15.25;;;;;20.63;52.57;99553.38;5081055;28;45281;-48
2022/05/23 10:21:32;;;;;;;;;14.00;12.00;;;;;20.67;52.95;99558.50;5079967;27;46507;-49
2022/05/23 10:24:07;;;;;;;;;12.25;12.00;;;;;20.63;52.60;99558.72;5080628;28;45173;-46
2022/05/23 10:26:40;;;;;;;;;16.25;15.25;;;;;20.67;52.44;99563.84;5069772;28;45414;-46
2022/05/23 10:29:20;;;;;;;;;16.00;15.00;;;;;20.59;53.40;99564.38;5078171;28;45177;-46
2022/05/23 10:32:01;;;;;;;;;14.50;14.25;;;;;20.58;53.22;99560.03;5080436;28;46331;-50
2022/05/23 10:34:51;;;;;;;;;15.25;15.00;;;;;20.52;53.21;99563.16;5080850;28;45275;-51
2022/05/23 10:37:23;;;;;;;;;15.50;15.00;;;;;20.48;53.32;99556.34;5080758;28;45489;-48
2022/05/23 10:42:58;;;;;;;;;15.75;15.00;;;;;20.45;53.37;99558.28;5080809;28;45808;-49
2022/05/23 10:45:59;;;;;;;;;15.75;14.75;;;;;20.43;53.09;99554.88;5080242;28;45429;-49
2022/05/23 10:48:46;;;;;;;;;16.75;16.75;;;;;20.41;53.44;99556.78;5073360;28;45349;-46
2022/05/23 10:51:26;;;;;;;;;16.25;15.75;;;;;20.38;53.00;99554.34;5080625;28;45274;-47
2022/05/23 10:53:57;;;;;;;;;17.25;15.75;;;;;20.36;52.95;99550.09;5080556;28;46542;-47
2022/05/23 10:56:32;;;;;;;;;21.00;18.75;;;;;20.37;53.39;99546.47;5078877;28;45597;-48
2022/05/23 10:59:02;;;;;;;;;21.75;20.00;;;;;20.29;53.26;99539.03;5080797;28;45302;-49
2022/05/23 11:01:40;;;;;;;;;18.25;18.00;;;;;20.30;53.04;99556.72;5080094;28;45237;-51
2022/05/23 11:04:26;;;;;;;;;19.50;19.25;;;;;20.28;53.16;99569.34;5080444;28;45445;-45
2022/05/23 11:06:58;;;;;;;;;23.25;22.00;;;;;20.22;53.68;99601.81;5080146;28;45423;-49
2022/05/23 11:09:29;;;;;;;;;26.00;22.00;;;;;20.18;53.70;99552.31;5080348;28;45541;-49
2022/05/23 11:12:09;;;;;;;;;24.00;22.00;;;;;20.15;53.47;99540.06;5080437;28;45243;-47
2022/05/23 11:15:02;;;;;;;;;28.25;25.75;;;;;20.10;53.56;99559.06;5079747;28;46569;-47
2022/05/23 11:17:32;;;;;;;;;26.00;23.50;;;;;20.03;54.27;99565.78;5079732;28;45419;-50
2022/05/23 11:20:18;;;;;;;;;25.00;23.25;;;;;19.97;54.23;99560.91;5080385;27;45363;-46
2022/05/23 11:22:50;;;;;;;;;24.25;21.75;;;;;19.91;53.68;99561.34;5079986;28;45335;-50
2022/05/23 11:25:25;;;;;;;;;25.50;23.50;;;;;19.87;53.82;99563.38;5067795;28;45443;-49
2022/05/23 11:33:46;;;;;;;;;27.50;24.75;;;;;19.72;54.09;99573.31;5083486;28;45331;-49
2022/05/23 11:36:15;;;;;;;;;25.75;24.50;;;;;19.70;54.14;99577.00;5083393;28;46287;-49
2022/05/23 11:38:45;;;;;;;;;27.50;25.50;;;;;19.66;54.26;99581.75;5083357;28;45422;-46
2022/05/23 11:41:33;;;;;;;;;31.75;24.25;;;;;19.63;54.24;99580.13;5083845;28;45235;-49
2022/05/23 11:44:02;;;;;;;;;25.50;22.50;;;;;19.63;54.36;99573.94;5083274;28;45193;-48
2022/05/23 11:47:04;;;;;;;;;33.25;30.25;;;;;19.65;54.86;99583.53;5082963;28;45352;-50
2022/05/23 11:49:46;;;;;;;;;25.25;23.75;;;;;19.68;54.81;99587.78;5083517;28;45404;-47
2022/05/23 11:52:26;;;;;;;;;30.50;28.75;;;;;19.68;55.34;99582.47;5083563;28;45227;-50
2022/05/23 11:54:52;;;;;;;;;24.25;22.75;;;;;19.70;54.63;99577.88;5083207;28;45418;-52
2022/05/23 11:57:35;;;;;;;;;28.50;27.75;;;;;19.71;54.75;99576.06;5083094;28;46958;-52
2022/05/23 12:00:08;;;;;;;;;31.00;27.50;;;;;19.75;55.07;99583.75;5082783;28;45385;-48
2022/05/23 12:02:38;;;;;;;;;29.50;25.00;;;;;19.75;54.88;99586.41;5081771;28;45239;-48
2022/05/23 12:05:12;;;;;;;;;28.50;25.50;;;;;19.75;55.06;99589.06;5083136;27;45530;-52
2022/05/23 12:07:37;;;;;;;;;30.50;26.75;;;;;19.74;55.22;99579.38;5082868;28;45452;-47
2022/05/23 12:10:25;;;;;;;;;28.25;26.75;;;;;19.75;54.81;99588.22;5083055;28;45334;-48
2022/05/23 12:12:58;;;;;;;;;32.25;30.75;;;;;19.72;54.98;99585.75;5083070;28;45315;-51
2022/05/23 12:15:42;;;;;;;;;29.75;27.75;;;;;19.72;55.05;99591.09;5081385;28;45510;-48
2022/05/23 12:18:26;;;;;;;;;28.50;25.25;;;;;19.69;55.44;99596.66;5082897;27;45910;-50
2022/05/23 12:21:03;;;;;;;;;31.25;28.75;;;;;19.66;55.43;99595.06;5082832;27;45311;-52
2022/05/23 12:23:33;;;;;;;;;28.75;27.50;;;;;19.63;55.46;99589.94;5083088;28;45476;-52
2022/05/23 12:26:06;;;;;;;;;25.75;25.50;;;;;19.60;55.62;99590.16;5062682;28;45191;-49
2022/05/23 12:28:43;;;;;;;;;24.00;22.75;;;;;19.59;55.25;99591.94;5061055;28;46676;-49
2022/05/23 12:31:13;;;;;;;;;26.00;24.50;;;;;19.58;55.19;99590.25;5069717;28;45225;-50
2022/05/23 12:33:46;;;;;;;;;25.75;23.25;;;;;19.54;55.32;99596.75;5082809;28;45359;-50